createdAt,value
2023-04-19T00:00:09.582Z,45.92
2023-04-19T00:02:38.185Z,46.13
2023-04-19T00:05:06.606Z,46.09
2023-04-19T00:07:36.387Z,45.78
2023-04-19T00:10:04.706Z,45.95
2023-04-19T00:12:32.960Z,46.06
2023-04-19T00:15:01.027Z,45.93
2023-04-19T00:17:29.251Z,46.10
2023-04-19T00:19:57.749Z,46.22
2023-04-19T00:22:26.302Z,46.33
2023-04-19T00:24:54.321Z,46.47
2023-04-19T00:27:22.288Z,46.33
2023-04-19T00:29:50.224Z,46.42
2023-04-19T00:32:18.289Z,46.68
2023-04-19T00:34:46.220Z,46.73
2023-04-19T00:37:14.209Z,46.81
2023-04-19T00:39:42.185Z,46.95
2023-04-19T00:42:10.405Z,47.01
2023-04-19T00:44:38.527Z,47.50
2023-04-19T00:47:06.533Z,47.66
2023-04-19T00:49:34.499Z,47.83
2023-04-19T00:52:02.463Z,47.93
2023-04-19T00:54:30.672Z,48.14
2023-04-19T00:56:58.616Z,48.43
2023-04-19T00:59:26.534Z,48.57
2023-04-19T01:01:54.551Z,48.42
2023-04-19T01:04:23.204Z,48.57
2023-04-19T01:06:51.489Z,48.48
2023-04-19T01:09:19.770Z,48.42
2023-04-19T01:11:47.880Z,48.36
2023-04-19T01:14:16.887Z,48.40
2023-04-19T01:16:48.102Z,48.47
2023-04-19T01:19:16.879Z,48.41
2023-04-19T01:21:46.463Z,48.05
2023-04-19T01:24:14.724Z,48.02
2023-04-19T01:26:42.966Z,48.01
2023-04-19T01:29:11.016Z,47.84
2023-04-19T01:31:39.281Z,47.96
2023-04-19T01:34:07.264Z,48.03
2023-04-19T01:36:35.149Z,48.25
2023-04-19T01:39:03.113Z,48.42
2023-04-19T01:41:32.545Z,48.60
2023-04-19T01:44:01.442Z,49.00
2023-04-19T01:46:29.807Z,49.34
2023-04-19T01:48:57.690Z,49.42
2023-04-19T01:51:26.069Z,49.85
2023-04-19T01:53:54.930Z,50.18
2023-04-19T01:56:24.422Z,50.50
2023-04-19T01:58:52.324Z,50.67
2023-04-19T02:01:20.758Z,50.96
2023-04-19T02:03:49.674Z,51.18
2023-04-19T02:06:17.679Z,51.60
2023-04-19T02:08:45.623Z,51.54
2023-04-19T02:11:16.933Z,51.61
2023-04-19T02:13:44.839Z,51.92
2023-04-19T02:16:12.819Z,52.18
2023-04-19T02:18:41.727Z,52.41
2023-04-19T02:21:09.807Z,52.04
2023-04-19T02:23:37.880Z,51.63
2023-04-19T02:26:05.835Z,51.78
2023-04-19T02:28:34.208Z,51.98
2023-04-19T02:31:04.912Z,52.15
2023-04-19T02:33:38.046Z,52.66
2023-04-19T02:36:06.299Z,52.15
2023-04-19T02:38:34.864Z,51.80
2023-04-19T02:41:04.518Z,52.01
2023-04-19T02:43:32.554Z,52.49
2023-04-19T02:46:00.462Z,52.86
2023-04-19T02:48:28.556Z,53.42
2023-04-19T02:50:57.090Z,52.98
2023-04-19T02:53:25.726Z,52.94
2023-04-19T02:55:53.999Z,53.34
2023-04-19T02:58:22.357Z,53.94
2023-04-19T03:01:07.298Z,54.24
2023-04-19T03:03:35.487Z,53.89
2023-04-19T03:06:03.790Z,53.66
2023-04-19T03:08:33.203Z,54.08
2023-04-19T03:11:01.109Z,53.91
2023-04-19T03:13:31.884Z,53.81
2023-04-19T03:16:00.352Z,53.79
2023-04-19T03:18:28.657Z,53.27
2023-04-19T03:20:57.177Z,53.08
2023-04-19T03:23:27.059Z,53.19
2023-04-19T03:25:59.486Z,53.35
2023-04-19T03:28:36.923Z,53.53
2023-04-19T03:31:37.610Z,53.56
2023-04-19T03:34:05.655Z,53.59
2023-04-19T03:36:39.939Z,53.11
2023-04-19T03:39:07.833Z,52.82
2023-04-19T03:42:28.852Z,54.35
2023-04-19T03:45:27.347Z,53.05
2023-04-19T03:47:55.736Z,52.99
2023-04-19T03:50:24.679Z,52.80
2023-04-19T03:52:54.665Z,52.60
2023-04-19T03:55:22.732Z,52.48
2023-04-19T03:57:50.724Z,52.62
2023-04-19T04:00:29.252Z,52.43
2023-04-19T04:02:57.938Z,52.08
2023-04-19T04:05:28.440Z,51.49
2023-04-19T04:07:57.951Z,50.80
2023-04-19T04:10:26.110Z,50.30
2023-04-19T04:12:54.615Z,50.27
2023-04-19T04:15:28.382Z,50.27
2023-04-19T04:17:57.358Z,49.78
2023-04-19T04:20:27.184Z,49.23
2023-04-19T04:22:59.611Z,49.02
2023-04-19T04:25:29.019Z,48.83
2023-04-19T04:27:59.409Z,48.28
2023-04-19T04:30:28.811Z,47.98
2023-04-19T04:32:58.899Z,47.77
2023-04-19T04:35:27.933Z,47.70
2023-04-19T04:38:17.486Z,47.08
2023-04-19T04:40:55.984Z,46.46
2023-04-19T04:43:25.854Z,46.49
2023-04-19T04:45:55.812Z,45.92
2023-04-19T04:48:24.651Z,45.65
2023-04-19T04:50:52.629Z,45.16
2023-04-19T04:53:20.800Z,44.85
2023-04-19T04:55:50.248Z,45.22
2023-04-19T04:58:20.531Z,45.37
2023-04-19T05:01:14.771Z,45.63
2023-04-19T05:03:42.822Z,45.63
2023-04-19T05:06:14.446Z,46.01
2023-04-19T05:08:42.499Z,46.05
2023-04-19T05:11:24.443Z,46.29
2023-04-19T05:13:53.532Z,46.48
2023-04-19T05:16:21.770Z,46.41
2023-04-19T05:18:49.881Z,46.41
2023-04-19T05:21:17.807Z,46.17
2023-04-19T05:23:46.455Z,46.17
2023-04-19T05:26:15.665Z,45.99
2023-04-19T05:28:44.550Z,45.92
2023-04-19T05:31:21.198Z,45.59
2023-04-19T05:34:03.457Z,45.27
2023-04-19T05:36:32.356Z,44.96
2023-04-19T05:39:01.182Z,44.83
2023-04-19T05:41:29.247Z,44.75
2023-04-19T05:43:57.295Z,44.42
2023-04-19T05:46:25.637Z,43.89
2023-04-19T05:48:53.703Z,43.29
2023-04-19T05:51:40.893Z,42.49
2023-04-19T05:54:23.639Z,41.89
2023-04-19T05:56:51.527Z,41.45
2023-04-19T05:59:19.650Z,41.58
2023-04-19T06:01:48.626Z,42.08
2023-04-19T06:04:17.092Z,42.38
2023-04-19T06:06:45.656Z,42.27
2023-04-19T06:09:15.838Z,42.10
2023-04-19T06:11:50.606Z,42.33
2023-04-19T06:14:20.084Z,42.05
2023-04-19T06:16:48.131Z,42.14
2023-04-19T06:19:16.546Z,43.02
2023-04-19T06:21:44.579Z,42.83
2023-04-19T06:24:12.501Z,42.54
2023-04-19T06:26:40.460Z,42.02
2023-04-19T06:29:08.414Z,41.81
2023-04-19T06:31:36.747Z,41.78
2023-04-19T06:34:04.827Z,41.30
2023-04-19T06:36:33.613Z,41.56
2023-04-19T06:39:01.449Z,41.36
2023-04-19T06:41:29.774Z,41.46
2023-04-19T06:43:57.712Z,41.20
2023-04-19T06:46:27.706Z,41.20
2023-04-19T06:48:55.759Z,40.84
2023-04-19T06:51:23.611Z,40.82
2023-04-19T06:53:51.808Z,40.52
2023-04-19T06:56:25.152Z,40.60
2023-04-19T06:58:53.054Z,40.70
2023-04-19T07:01:21.137Z,41.47
2023-04-19T07:03:49.382Z,41.84
2023-04-19T07:06:17.450Z,41.79
2023-04-19T07:08:50.197Z,41.64
2023-04-19T07:11:20.362Z,41.34
2023-04-19T07:13:50.192Z,40.91
2023-04-19T07:16:18.139Z,41.06
2023-04-19T07:18:46.453Z,41.36
2023-04-19T07:21:14.807Z,41.11
2023-04-19T07:23:43.108Z,41.61
2023-04-19T07:26:11.327Z,42.01
2023-04-19T07:28:39.790Z,41.21
2023-04-19T07:31:07.865Z,41.54
2023-04-19T07:33:36.186Z,41.45
2023-04-19T07:36:04.503Z,41.72
2023-04-19T07:38:32.634Z,41.59
2023-04-19T07:41:00.662Z,41.69
2023-04-19T07:43:30.234Z,41.94
2023-04-19T07:45:58.110Z,41.60
2023-04-19T07:48:27.205Z,41.25
2023-04-19T07:50:55.418Z,41.71
2023-04-19T07:53:23.289Z,42.19
2023-04-19T07:55:51.182Z,41.86
2023-04-19T07:58:19.033Z,41.81
2023-04-19T08:00:46.876Z,41.85
2023-04-19T08:03:14.930Z,41.49
2023-04-19T08:05:43.390Z,41.27
2023-04-19T08:08:11.416Z,41.09
2023-04-19T08:10:39.614Z,40.93
2023-04-19T08:13:07.532Z,40.68
2023-04-19T08:18:06.982Z,40.61
2023-04-19T08:20:37.023Z,40.45
2023-04-19T08:23:18.140Z,40.36
2023-04-19T08:25:50.969Z,40.33
2023-04-19T08:28:19.526Z,40.16
2023-04-19T08:30:47.636Z,40.01
2023-04-19T08:33:16.112Z,39.46
2023-04-19T08:35:45.774Z,39.74
2023-04-19T08:38:13.813Z,40.43
2023-04-19T08:40:46.054Z,40.29
2023-04-19T08:43:13.957Z,40.03
2023-04-19T08:45:41.851Z,40.20
2023-04-19T08:48:11.960Z,39.95
2023-04-19T08:53:23.948Z,40.09
2023-04-19T08:58:46.659Z,41.07
2023-04-19T09:04:03.379Z,40.20
2023-04-19T09:06:38.862Z,40.01
2023-04-19T09:11:55.375Z,39.76
2023-04-19T09:14:23.289Z,39.71
2023-04-19T09:16:52.482Z,39.62
2023-04-19T09:19:24.741Z,39.38
2023-04-19T09:21:54.846Z,39.00
2023-04-19T09:25:13.965Z,38.09
2023-04-19T09:27:35.288Z,38.27
2023-04-19T09:30:04.458Z,38.20
2023-04-19T09:32:46.585Z,37.34
2023-04-19T09:35:14.689Z,37.39
2023-04-19T09:40:25.843Z,37.09
2023-04-19T09:43:08.797Z,36.77
2023-04-19T09:45:46.551Z,36.26
2023-04-19T09:48:15.964Z,36.24
2023-04-19T09:50:59.078Z,36.05
2023-04-19T09:53:32.930Z,35.89
2023-04-19T09:56:03.065Z,36.07
2023-04-19T09:58:42.572Z,35.88
2023-04-19T10:01:16.647Z,35.61
2023-04-19T10:03:46.671Z,35.33
2023-04-19T10:08:50.201Z,35.23
2023-04-19T10:11:21.999Z,35.30
2023-04-19T10:13:50.172Z,35.73
2023-04-19T10:16:20.249Z,35.97
2023-04-19T10:18:50.105Z,36.27
2023-04-19T10:21:18.392Z,36.23
2023-04-19T10:23:46.552Z,36.78
2023-04-19T10:26:14.464Z,37.27
2023-04-19T10:28:43.888Z,37.65
2023-04-19T10:31:13.189Z,37.26
2023-04-19T10:33:41.542Z,37.84
2023-04-19T10:36:11.134Z,38.55
2023-04-19T10:38:49.132Z,38.88
2023-04-19T10:41:18.616Z,38.89
2023-04-19T10:44:11.004Z,39.26
2023-04-19T10:46:40.861Z,38.98
2023-04-19T10:49:09.964Z,38.65
2023-04-19T10:51:59.077Z,39.29
2023-04-19T10:54:34.358Z,39.68
2023-04-19T10:57:06.718Z,40.09
2023-04-19T10:59:35.598Z,39.15
2023-04-19T11:02:05.257Z,38.43
2023-04-19T11:04:36.658Z,37.81
2023-04-19T11:07:06.009Z,37.37
2023-04-19T11:09:39.185Z,36.67
2023-04-19T11:12:08.989Z,36.78
2023-04-19T11:14:40.011Z,37.80
2023-04-19T11:17:28.271Z,38.72
2023-04-19T11:20:00.880Z,39.18
2023-04-19T11:22:35.358Z,39.85
2023-04-19T11:25:10.604Z,39.14
2023-04-19T11:27:43.107Z,38.62
2023-04-19T11:30:13.236Z,38.64
2023-04-19T11:32:54.119Z,38.74
2023-04-19T11:35:22.756Z,39.45
2023-04-19T11:37:50.745Z,40.18
2023-04-19T11:40:19.699Z,40.11
2023-04-19T11:42:48.746Z,39.85
2023-04-19T11:45:32.974Z,39.49
2023-04-19T11:48:08.161Z,38.98
2023-04-19T11:50:36.461Z,38.59
2023-04-19T11:53:23.985Z,37.53
2023-04-19T11:55:53.387Z,37.29
2023-04-19T11:58:29.931Z,37.39
2023-04-19T12:01:08.509Z,37.36
2023-04-19T12:03:43.090Z,37.64
2023-04-19T12:06:16.536Z,38.30
2023-04-19T12:08:49.838Z,38.67
2023-04-19T12:11:19.050Z,39.24
2023-04-19T12:13:47.537Z,40.28
2023-04-19T12:16:15.534Z,40.33
2023-04-19T12:18:45.345Z,41.35
2023-04-19T12:21:27.219Z,41.93
2023-04-19T12:23:59.145Z,41.76
2023-04-19T12:26:28.466Z,41.41
2023-04-19T12:28:57.045Z,41.31
2023-04-19T12:33:54.305Z,41.43
2023-04-19T12:36:22.435Z,41.40
2023-04-19T12:38:50.476Z,41.43
2023-04-19T12:41:18.406Z,41.49
2023-04-19T12:43:46.332Z,41.81
2023-04-19T12:46:14.479Z,42.29
2023-04-19T12:48:42.746Z,42.68
2023-04-19T12:51:10.726Z,43.51
2023-04-19T12:53:38.554Z,44.05
2023-04-19T12:56:07.681Z,44.96
2023-04-19T12:58:35.757Z,45.93
2023-04-19T13:01:03.767Z,46.95
2023-04-19T13:03:33.325Z,47.21
2023-04-19T13:06:01.561Z,47.04
2023-04-19T13:08:44.285Z,47.51
2023-04-19T13:11:15.444Z,47.91
2023-04-19T13:13:43.340Z,48.23
2023-04-19T13:16:11.480Z,47.88
2023-04-19T13:18:39.756Z,47.57
2023-04-19T13:21:08.601Z,47.55
2023-04-19T13:23:36.900Z,48.46
2023-04-19T13:26:05.378Z,48.79
2023-04-19T13:28:35.986Z,48.30
2023-04-19T13:31:05.368Z,48.33
2023-04-19T13:33:34.062Z,48.69
2023-04-19T13:36:02.709Z,48.94
2023-04-19T13:38:30.926Z,48.76
2023-04-19T13:40:59.365Z,48.67
2023-04-19T13:43:27.305Z,48.93
2023-04-19T13:45:55.363Z,49.50
2023-04-19T13:48:23.522Z,49.47
2023-04-19T13:50:52.743Z,49.87
2023-04-19T13:53:20.949Z,50.00
2023-04-19T13:55:49.824Z,49.65
2023-04-19T13:58:18.050Z,49.19
2023-04-19T14:00:46.340Z,49.06
2023-04-19T14:03:14.715Z,49.02
2023-04-19T14:05:43.321Z,48.93
2023-04-19T14:08:11.403Z,48.92
2023-04-19T14:10:40.321Z,48.71
2023-04-19T14:13:08.212Z,48.60
2023-04-19T14:15:36.176Z,48.74
2023-04-19T14:18:04.178Z,48.98
2023-04-19T14:20:32.399Z,49.19
2023-04-19T14:23:01.280Z,49.32
2023-04-19T14:25:29.332Z,49.07
2023-04-19T14:27:58.734Z,48.92
2023-04-19T14:30:28.863Z,49.08
2023-04-19T14:32:59.398Z,48.98
2023-04-19T14:35:27.525Z,49.13
2023-04-19T14:37:55.656Z,49.22
2023-04-19T14:40:23.697Z,49.08
2023-04-19T14:42:51.780Z,48.57
2023-04-19T14:45:20.665Z,48.33
2023-04-19T14:47:48.776Z,48.18
2023-04-19T14:50:16.853Z,48.13
2023-04-19T14:52:44.887Z,47.96
2023-04-19T14:55:13.022Z,47.57
2023-04-19T14:57:41.144Z,47.08
2023-04-19T15:00:10.152Z,46.96
2023-04-19T15:02:38.507Z,46.64
2023-04-19T15:05:07.708Z,46.65
2023-04-19T15:07:36.014Z,46.52
2023-04-19T15:10:04.538Z,46.25
2023-04-19T15:12:33.057Z,46.12
2023-04-19T15:15:01.798Z,46.16
2023-04-19T15:17:30.170Z,46.25
2023-04-19T15:19:59.210Z,45.62
2023-04-19T15:22:27.214Z,45.11
2023-04-19T15:24:55.156Z,44.17
2023-04-19T15:27:23.253Z,43.26
2023-04-19T15:29:51.826Z,42.94
2023-04-19T15:32:20.040Z,43.05
2023-04-19T15:34:47.930Z,43.04
2023-04-19T15:37:15.951Z,43.04
2023-04-19T15:39:43.898Z,43.04
2023-04-19T15:42:13.014Z,43.10
2023-04-19T15:44:42.834Z,43.17
2023-04-19T15:47:12.096Z,43.25
2023-04-19T15:49:40.729Z,43.17
2023-04-19T15:52:08.887Z,43.26
2023-04-19T15:54:37.817Z,43.27
2023-04-19T15:57:05.740Z,43.37
2023-04-19T16:00:14.426Z,44.25
2023-04-19T16:02:43.661Z,43.50
2023-04-19T16:05:11.736Z,43.43
2023-04-19T16:07:40.053Z,43.47
2023-04-19T16:10:08.232Z,43.55
2023-04-19T16:12:36.655Z,43.35
2023-04-19T16:15:05.839Z,43.36
2023-04-19T16:17:34.487Z,43.61
2023-04-19T16:20:02.431Z,43.43
2023-04-19T16:22:30.647Z,43.76
2023-04-19T16:24:58.589Z,44.17
2023-04-19T16:27:27.233Z,44.57
2023-04-19T16:29:55.245Z,44.80
2023-04-19T16:32:23.377Z,44.87
2023-04-19T16:34:51.663Z,45.09
2023-04-19T16:37:19.705Z,45.12
2023-04-19T16:39:47.672Z,45.08
2023-04-19T16:42:16.569Z,45.32
2023-04-19T16:44:44.753Z,45.37
2023-04-19T16:47:12.678Z,45.39
2023-04-19T16:49:40.631Z,45.23
2023-04-19T16:52:08.551Z,45.53
2023-04-19T16:54:37.986Z,45.44
2023-04-19T16:57:06.080Z,45.55
2023-04-19T16:59:34.609Z,45.68
2023-04-19T17:02:02.942Z,45.77
2023-04-19T17:04:32.612Z,46.04
2023-04-19T17:07:01.208Z,46.26
2023-04-19T17:09:29.373Z,46.24
2023-04-19T17:11:57.888Z,46.65
2023-04-19T17:14:25.915Z,46.99
2023-04-19T17:16:54.193Z,47.03
2023-04-19T17:19:22.362Z,47.39
2023-04-19T17:21:51.568Z,47.46
2023-04-19T17:24:19.539Z,47.71
2023-04-19T17:26:47.596Z,48.04
2023-04-19T17:29:15.878Z,48.40
2023-04-19T17:31:44.202Z,48.80
2023-04-19T17:34:12.379Z,49.08
2023-04-19T17:36:42.268Z,49.19
2023-04-19T17:39:10.140Z,48.97
2023-04-19T17:41:38.026Z,48.98
2023-04-19T17:44:05.924Z,48.77
2023-04-19T17:46:34.539Z,48.74
2023-04-19T17:49:02.437Z,48.29
2023-04-19T17:51:31.306Z,47.69
2023-04-19T17:53:59.205Z,46.98
2023-04-19T17:56:27.098Z,46.41
2023-04-19T17:58:55.049Z,45.99
2023-04-19T18:01:23.073Z,45.85
2023-04-19T18:03:51.339Z,45.53
2023-04-19T18:06:20.956Z,45.44
2023-04-19T18:08:49.080Z,45.50
2023-04-19T18:11:18.258Z,45.31
2023-04-19T18:13:46.297Z,45.34
2023-04-19T18:16:15.858Z,45.20
2023-04-19T18:18:43.857Z,45.80
2023-04-19T18:21:11.783Z,46.00
2023-04-19T18:23:39.725Z,45.75
2023-04-19T18:26:07.730Z,45.68
2023-04-19T18:28:37.493Z,45.90
2023-04-19T18:31:06.402Z,45.97
2023-04-19T18:33:35.493Z,45.96
2023-04-19T18:36:04.860Z,46.15
2023-04-19T18:38:33.034Z,46.44
2023-04-19T18:41:01.224Z,46.67
2023-04-19T18:43:30.836Z,47.24
2023-04-19T18:46:00.340Z,47.89
2023-04-19T18:48:30.078Z,48.27
2023-04-19T18:50:59.429Z,48.43
2023-04-19T18:53:30.059Z,48.68
2023-04-19T18:55:58.466Z,48.86
2023-04-19T18:58:27.185Z,48.72
2023-04-19T19:00:55.926Z,48.82
2023-04-19T19:05:55.619Z,49.67
2023-04-19T19:08:24.407Z,49.89
2023-04-19T19:13:24.582Z,50.09
2023-04-19T19:15:54.769Z,50.11
2023-04-19T19:18:22.716Z,50.02
2023-04-19T19:20:51.530Z,50.34
2023-04-19T19:23:20.482Z,50.18
2023-04-19T19:25:54.148Z,49.76
2023-04-19T19:28:22.573Z,49.84
2023-04-19T19:30:50.647Z,49.44
2023-04-19T19:33:18.835Z,49.74
2023-04-19T19:35:46.843Z,49.47
2023-04-19T19:38:14.680Z,49.27
2023-04-19T19:41:11.092Z,49.58
2023-04-19T19:43:31.001Z,49.58
2023-04-19T19:46:00.266Z,49.80
2023-04-19T19:48:30.245Z,50.00
2023-04-19T19:53:31.624Z,50.29
2023-04-19T19:56:00.371Z,49.59
2023-04-19T19:58:48.348Z,49.96
2023-04-19T20:01:17.532Z,50.01
2023-04-19T20:03:45.881Z,50.16
2023-04-19T20:08:47.550Z,50.02
2023-04-19T20:11:15.820Z,50.14
2023-04-19T20:13:45.837Z,50.15
2023-04-19T20:16:14.812Z,49.85
2023-04-19T20:18:43.452Z,49.86
2023-04-19T20:21:11.976Z,50.00
2023-04-19T20:23:40.140Z,50.05
2023-04-19T20:26:08.072Z,49.91
2023-04-19T20:28:36.476Z,49.69
2023-04-19T20:31:05.387Z,49.86
2023-04-19T20:33:33.974Z,50.10
2023-04-19T20:36:03.853Z,49.89
2023-04-19T20:38:31.941Z,49.90
2023-04-19T20:40:59.831Z,50.23
2023-04-19T20:43:27.935Z,50.03
2023-04-19T20:45:55.876Z,49.90
2023-04-19T20:48:23.877Z,49.81
2023-04-19T20:50:52.106Z,49.61
2023-04-19T20:53:20.031Z,49.67
2023-04-19T20:55:47.954Z,49.69
2023-04-19T20:58:16.425Z,49.55
2023-04-19T21:00:44.677Z,49.53
2023-04-19T21:03:12.961Z,49.48
2023-04-19T21:05:41.503Z,49.67
2023-04-19T21:08:09.510Z,49.61
2023-04-19T21:10:37.985Z,49.63
2023-04-19T21:13:06.308Z,49.53
2023-04-19T21:15:36.856Z,49.64
2023-04-19T21:18:05.109Z,49.42
2023-04-19T21:20:34.046Z,49.52
2023-04-19T21:23:03.474Z,49.78
2023-04-19T21:25:31.454Z,49.73
2023-04-19T21:27:59.425Z,49.81
2023-04-19T21:30:27.488Z,49.86
2023-04-19T21:32:55.530Z,49.77
2023-04-19T21:35:24.853Z,49.80
2023-04-19T21:37:52.791Z,49.98
2023-04-19T21:40:20.852Z,49.93
2023-04-19T21:42:50.013Z,49.89
2023-04-19T21:45:17.974Z,49.96
2023-04-19T21:47:46.263Z,49.96
2023-04-19T21:50:14.425Z,49.85
2023-04-19T21:52:42.925Z,50.18
2023-04-19T21:55:10.822Z,49.94
2023-04-19T21:57:38.793Z,49.74
2023-04-19T22:00:11.347Z,50.06
2023-04-19T22:02:41.381Z,49.89
2023-04-19T22:05:09.706Z,50.09
2023-04-19T22:07:38.608Z,50.15
2023-04-19T22:10:07.563Z,50.10
2023-04-19T22:12:45.144Z,50.19
2023-04-19T22:15:19.672Z,50.12
2023-04-19T22:17:48.219Z,50.21
2023-04-19T22:20:17.877Z,50.00
2023-04-19T22:22:45.951Z,49.99
2023-04-19T22:25:13.823Z,50.04
2023-04-19T22:27:41.794Z,50.49
2023-04-19T22:30:09.849Z,50.28
2023-04-19T22:32:38.679Z,50.10
2023-04-19T22:35:08.473Z,50.10
2023-04-19T22:37:36.608Z,50.24
2023-04-19T22:40:08.088Z,50.37
2023-04-19T22:42:37.215Z,50.43
2023-04-19T22:45:06.186Z,50.47
2023-04-19T22:47:34.234Z,50.27
2023-04-19T22:50:04.038Z,50.24
2023-04-19T22:52:32.288Z,50.36
2023-04-19T22:55:00.331Z,50.48
2023-04-19T22:57:28.174Z,50.58
2023-04-19T22:59:56.160Z,50.79
2023-04-19T23:02:24.159Z,50.70
2023-04-19T23:04:52.219Z,50.65
2023-04-19T23:07:21.964Z,50.45
2023-04-19T23:09:51.079Z,50.20
2023-04-19T23:12:19.078Z,50.34
2023-04-19T23:14:48.500Z,50.21
2023-04-19T23:17:17.324Z,49.98
2023-04-19T23:19:45.216Z,49.94
2023-04-19T23:22:13.279Z,49.98
2023-04-19T23:24:41.306Z,49.78
2023-04-19T23:27:09.213Z,49.74
2023-04-19T23:29:37.512Z,49.82
2023-04-19T23:32:05.885Z,49.85
2023-04-19T23:34:34.575Z,49.68
2023-04-19T23:37:02.707Z,49.67
2023-04-19T23:39:31.253Z,49.70
2023-04-19T23:41:59.251Z,49.63
2023-04-19T23:44:27.483Z,49.44
2023-04-19T23:46:55.670Z,49.39
2023-04-19T23:49:23.704Z,49.25
2023-04-19T23:51:51.662Z,49.47
2023-04-19T23:54:22.313Z,49.13
2023-04-19T23:56:50.725Z,49.25
2023-04-19T23:59:19.338Z,49.19
